sensor_id;sensor_type;location;lat;lon;timestamp;pressure;altitude;pressure_sealevel;temperature;humidity
39411;BME280;26579;43.238;23.124;2024-01-30T08:55:01;99254.69;;;9.33;38.20
39411;BME280;26579;43.238;23.124;2024-01-30T08:57:27;99239.72;;;10.22;34.04
39411;BME280;26579;43.238;23.124;2024-01-30T08:59:52;99249.06;;;11.22;32.43
39411;BME280;26579;43.238;23.124;2024-01-30T09:02:18;99244.78;;;13.84;29.90
39411;BME280;26579;43.238;23.124;2024-01-30T09:04:44;99234.91;;;16.36;26.55
39411;BME280;26579;43.238;23.124;2024-01-30T09:07:09;99222.41;;;16.89;24.25
39411;BME280;26579;43.238;23.124;2024-01-30T09:09:37;99236.75;;;16.85;22.64
39411;BME280;26579;43.238;23.124;2024-01-30T09:12:03;99242.16;;;14.71;25.20
39411;BME280;26579;43.238;23.124;2024-01-30T09:14:29;99242.91;;;13.09;26.94
39411;BME280;26579;43.238;23.124;2024-01-30T09:16:54;99239.78;;;11.70;29.31
39411;BME280;26579;43.238;23.124;2024-01-30T09:19:20;99243.53;;;10.73;30.96
39411;BME280;26579;43.238;23.124;2024-01-30T09:21:46;99249.03;;;9.45;31.97
39411;BME280;26579;43.238;23.124;2024-01-30T09:24:11;99244.13;;;8.94;32.73
39411;BME280;26579;43.238;23.124;2024-01-30T09:26:37;99254.28;;;8.29;34.64
39411;BME280;26579;43.238;23.124;2024-01-30T09:29:02;99236.09;;;8.06;35.26
39411;BME280;26579;43.238;23.124;2024-01-30T09:31:28;99241.88;;;7.87;36.02
39411;BME280;26579;43.238;23.124;2024-01-30T09:33:54;99244.50;;;7.61;36.03
39411;BME280;26579;43.238;23.124;2024-01-30T09:36:20;99249.19;;;7.49;36.40
39411;BME280;26579;43.238;23.124;2024-01-30T09:38:45;99246.66;;;7.21;37.24
39411;BME280;26579;43.238;23.124;2024-01-30T09:41:11;99246.63;;;6.65;37.16
39411;BME280;26579;43.238;23.124;2024-01-30T09:43:38;99239.50;;;6.42;37.96
39411;BME280;26579;43.238;23.124;2024-01-30T09:46:05;99246.22;;;6.49;38.67
39411;BME280;26579;43.238;23.124;2024-01-30T09:48:32;99237.56;;;6.50;38.50
39411;BME280;26579;43.238;23.124;2024-01-30T09:50:59;99234.97;;;7.08;37.64
39411;BME280;26579;43.238;23.124;2024-01-30T09:53:25;99222.69;;;8.65;34.85
39411;BME280;26579;43.238;23.124;2024-01-30T09:55:51;99223.03;;;11.03;30.65
39411;BME280;26579;43.238;23.124;2024-01-30T09:58:17;99211.22;;;11.13;29.53
39411;BME280;26579;43.238;23.124;2024-01-30T10:00:42;99219.38;;;13.09;28.02
39411;BME280;26579;43.238;23.124;2024-01-30T10:03:08;99209.59;;;14.46;25.86
39411;BME280;26579;43.238;23.124;2024-01-30T10:05:35;99198.22;;;16.21;24.27
39411;BME280;26579;43.238;23.124;2024-01-30T10:08:01;99206.94;;;17.56;21.83
39411;BME280;26579;43.238;23.124;2024-01-30T10:10:31;99200.41;;;15.36;21.56
39411;BME280;26579;43.238;23.124;2024-01-30T10:12:56;99192.31;;;16.93;22.16
39411;BME280;26579;43.238;23.124;2024-01-30T10:15:22;99199.19;;;18.35;20.85
39411;BME280;26579;43.238;23.124;2024-01-30T10:17:47;99199.63;;;16.77;20.39
39411;BME280;26579;43.238;23.124;2024-01-30T10:20:13;99198.50;;;17.40;20.64
39411;BME280;26579;43.238;23.124;2024-01-30T10:22:40;99195.94;;;17.51;20.32
39411;BME280;26579;43.238;23.124;2024-01-30T10:25:06;99193.16;;;17.88;20.53
39411;BME280;26579;43.238;23.124;2024-01-30T10:27:32;99189.03;;;18.42;19.84
39411;BME280;26579;43.238;23.124;2024-01-30T10:29:58;99190.28;;;16.96;20.08
39411;BME280;26579;43.238;23.124;2024-01-30T10:32:23;99186.81;;;16.96;20.63
39411;BME280;26579;43.238;23.124;2024-01-30T10:34:49;99179.06;;;16.69;21.24
39411;BME280;26579;43.238;23.124;2024-01-30T10:37:15;99166.94;;;16.42;21.66
39411;BME280;26579;43.238;23.124;2024-01-30T10:39:45;99169.09;;;15.99;21.68
39411;BME280;26579;43.238;23.124;2024-01-30T10:42:20;99158.63;;;15.59;22.13
39411;BME280;26579;43.238;23.124;2024-01-30T10:45:16;99160.66;;;15.15;23.32
39411;BME280;26579;43.238;23.124;2024-01-30T10:47:53;99152.22;;;14.83;23.91
39411;BME280;26579;43.238;23.124;2024-01-30T10:50:19;99147.19;;;14.10;23.76
39411;BME280;26579;43.238;23.124;2024-01-30T10:52:45;99164.53;;;13.08;24.87
39411;BME280;26579;43.238;23.124;2024-01-30T10:55:12;99158.38;;;13.09;25.75
39411;BME280;26579;43.238;23.124;2024-01-30T10:57:39;99153.25;;;12.28;26.20
39411;BME280;26579;43.238;23.124;2024-01-30T11:00:07;99160.03;;;11.99;26.68
39411;BME280;26579;43.238;23.124;2024-01-30T11:02:34;99159.88;;;11.32;27.35
39411;BME280;26579;43.238;23.124;2024-01-30T11:05:00;99151.22;;;11.49;27.93
39411;BME280;26579;43.238;23.124;2024-01-30T11:07:27;99149.47;;;11.32;27.15
39411;BME280;26579;43.238;23.124;2024-01-30T11:09:59;99149.97;;;11.39;27.29
39411;BME280;26579;43.238;23.124;2024-01-30T11:12:25;99139.22;;;11.63;27.76
39411;BME280;26579;43.238;23.124;2024-01-30T11:15:13;99135.03;;;11.43;27.90
39411;BME280;26579;43.238;23.124;2024-01-30T11:20:20;99150.16;;;10.82;28.29
39411;BME280;26579;43.238;23.124;2024-01-30T11:22:47;99145.75;;;11.19;27.91
39411;BME280;26579;43.238;23.124;2024-01-30T11:25:17;99130.94;;;11.20;28.04
39411;BME280;26579;43.238;23.124;2024-01-30T11:27:44;99142.38;;;11.00;28.86
39411;BME280;26579;43.238;23.124;2024-01-30T11:30:10;99138.66;;;10.31;28.52
39411;BME280;26579;43.238;23.124;2024-01-30T11:32:36;99132.59;;;10.31;29.14
39411;BME280;26579;43.238;23.124;2024-01-30T11:35:05;99124.78;;;9.91;28.79
39411;BME280;26579;43.238;23.124;2024-01-30T11:37:31;99129.75;;;9.16;29.94
39411;BME280;26579;43.238;23.124;2024-01-30T11:39:58;99131.78;;;9.09;31.44
39411;BME280;26579;43.238;23.124;2024-01-30T11:42:24;99121.47;;;9.28;30.57
39411;BME280;26579;43.238;23.124;2024-01-30T11:44:49;99124.66;;;9.55;30.67
39411;BME280;26579;43.238;23.124;2024-01-30T11:47:16;99112.00;;;9.87;30.19
39411;BME280;26579;43.238;23.124;2024-01-30T11:49:43;99101.13;;;9.77;29.53
39411;BME280;26579;43.238;23.124;2024-01-30T11:52:09;99117.81;;;9.73;29.54
39411;BME280;26579;43.238;23.124;2024-01-30T11:54:35;99102.03;;;9.96;30.07
39411;BME280;26579;43.238;23.124;2024-01-30T11:57:01;99085.06;;;9.69;30.09
39411;BME280;26579;43.238;23.124;2024-01-30T11:59:26;99099.56;;;9.93;30.10
39411;BME280;26579;43.238;23.124;2024-01-30T12:01:52;99099.50;;;9.95;29.53
39411;BME280;26579;43.238;23.124;2024-01-30T12:04:18;99093.09;;;10.02;29.03
39411;BME280;26579;43.238;23.124;2024-01-30T12:06:44;99095.13;;;10.14;29.01
39411;BME280;26579;43.238;23.124;2024-01-30T12:09:10;99095.00;;;10.17;28.38
39411;BME280;26579;43.238;23.124;2024-01-30T12:11:55;99090.56;;;10.01;29.13
39411;BME280;26579;43.238;23.124;2024-01-30T12:14:22;99076.13;;;9.93;29.34
39411;BME280;26579;43.238;23.124;2024-01-30T12:16:48;99084.56;;;9.80;29.87
39411;BME280;26579;43.238;23.124;2024-01-30T12:19:22;99077.81;;;9.75;29.85
39411;BME280;26579;43.238;23.124;2024-01-30T12:21:47;99072.28;;;10.02;30.61
39411;BME280;26579;43.238;23.124;2024-01-30T12:24:13;99073.81;;;9.48;29.66
39411;BME280;26579;43.238;23.124;2024-01-30T12:26:39;99067.53;;;9.72;30.08
39411;BME280;26579;43.238;23.124;2024-01-30T12:29:04;99054.41;;;9.75;30.48
39411;BME280;26579;43.238;23.124;2024-01-30T12:31:32;99058.13;;;9.70;29.62
39411;BME280;26579;43.238;23.124;2024-01-30T12:34:01;99055.09;;;9.60;29.97
39411;BME280;26579;43.238;23.124;2024-01-30T12:36:28;99059.53;;;9.38;30.28
39411;BME280;26579;43.238;23.124;2024-01-30T12:38:54;99062.69;;;9.44;30.17
39411;BME280;26579;43.238;23.124;2024-01-30T12:41:20;99064.53;;;9.22;30.81
39411;BME280;26579;43.238;23.124;2024-01-30T12:43:46;99070.38;;;9.06;32.22
39411;BME280;26579;43.238;23.124;2024-01-30T12:46:11;99069.72;;;9.22;31.22
39411;BME280;26579;43.238;23.124;2024-01-30T12:48:37;99065.00;;;9.11;31.14
39411;BME280;26579;43.238;23.124;2024-01-30T12:51:03;99063.69;;;9.01;31.07
39411;BME280;26579;43.238;23.124;2024-01-30T12:53:28;99062.31;;;9.13;31.84
39411;BME280;26579;43.238;23.124;2024-01-30T12:55:54;99045.19;;;9.29;31.48
39411;BME280;26579;43.238;23.124;2024-01-30T12:58:20;99048.50;;;9.72;31.37
39411;BME280;26579;43.238;23.124;2024-01-30T13:00:45;99051.66;;;9.97;31.07
39411;BME280;26579;43.238;23.124;2024-01-30T13:03:11;99051.72;;;10.15;30.33
39411;BME280;26579;43.238;23.124;2024-01-30T13:05:37;99038.94;;;9.91;30.21
39411;BME280;26579;43.238;23.124;2024-01-30T13:08:03;99056.22;;;9.34;31.01
39411;BME280;26579;43.238;23.124;2024-01-30T13:10:28;99050.28;;;9.51;30.98
39411;BME280;26579;43.238;23.124;2024-01-30T13:12:54;99052.00;;;9.32;31.01
39411;BME280;26579;43.238;23.124;2024-01-30T13:15:20;99051.53;;;9.22;31.56
39411;BME280;26579;43.238;23.124;2024-01-30T13:17:45;99027.16;;;9.45;31.21
39411;BME280;26579;43.238;23.124;2024-01-30T13:20:11;99037.81;;;9.78;31.29
39411;BME280;26579;43.238;23.124;2024-01-30T13:22:37;99037.84;;;8.98;31.85
39411;BME280;26579;43.238;23.124;2024-01-30T13:25:02;99037.63;;;8.61;32.25
39411;BME280;26579;43.238;23.124;2024-01-30T13:27:28;99045.44;;;8.60;32.15
39411;BME280;26579;43.238;23.124;2024-01-30T13:29:54;99031.13;;;8.06;32.66
39411;BME280;26579;43.238;23.124;2024-01-30T13:32:19;99033.22;;;7.96;33.32
39411;BME280;26579;43.238;23.124;2024-01-30T13:34:45;99034.75;;;7.78;33.50
39411;BME280;26579;43.238;23.124;2024-01-30T13:37:11;99051.31;;;7.51;34.11
39411;BME280;26579;43.238;23.124;2024-01-30T13:39:36;99045.91;;;7.80;34.14
39411;BME280;26579;43.238;23.124;2024-01-30T13:42:02;99037.78;;;7.89;33.99
39411;BME280;26579;43.238;23.124;2024-01-30T13:44:28;99043.63;;;8.18;33.37
39411;BME280;26579;43.238;23.124;2024-01-30T13:46:53;99037.25;;;8.49;32.68
39411;BME280;26579;43.238;23.124;2024-01-30T13:49:19;99044.72;;;8.56;33.03
39411;BME280;26579;43.238;23.124;2024-01-30T13:51:44;99040.38;;;8.79;32.46
39411;BME280;26579;43.238;23.124;2024-01-30T13:54:10;99042.03;;;8.80;32.09
39411;BME280;26579;43.238;23.124;2024-01-30T13:56:36;99046.78;;;8.48;32.55
39411;BME280;26579;43.238;23.124;2024-01-30T13:59:01;99046.63;;;8.53;33.37
39411;BME280;26579;43.238;23.124;2024-01-30T14:01:27;99040.16;;;8.41;32.75
39411;BME280;26579;43.238;23.124;2024-01-30T14:03:53;99035.75;;;8.43;32.72
39411;BME280;26579;43.238;23.124;2024-01-30T14:06:18;99029.88;;;8.60;32.91
39411;BME280;26579;43.238;23.124;2024-01-30T14:08:44;99028.66;;;8.89;32.11
39411;BME280;26579;43.238;23.124;2024-01-30T14:11:10;99022.09;;;8.80;32.36
39411;BME280;26579;43.238;23.124;2024-01-30T14:13:35;99034.34;;;8.99;32.25
39411;BME280;26579;43.238;23.124;2024-01-30T14:16:02;99034.53;;;9.15;31.97
39411;BME280;26579;43.238;23.124;2024-01-30T14:18:28;99031.78;;;9.18;31.59
39411;BME280;26579;43.238;23.124;2024-01-30T14:20:53;99025.75;;;9.17;32.40
39411;BME280;26579;43.238;23.124;2024-01-30T14:23:19;99022.72;;;9.07;31.53
39411;BME280;26579;43.238;23.124;2024-01-30T14:25:45;99036.00;;;8.79;32.21
39411;BME280;26579;43.238;23.124;2024-01-30T14:28:10;99031.16;;;8.50;32.88
39411;BME280;26579;43.238;23.124;2024-01-30T14:30:36;99039.19;;;8.44;33.07
39411;BME280;26579;43.238;23.124;2024-01-30T14:33:02;99034.66;;;8.49;33.51
39411;BME280;26579;43.238;23.124;2024-01-30T14:35:28;99034.81;;;8.22;33.40
39411;BME280;26579;43.238;23.124;2024-01-30T14:37:54;99008.84;;;7.55;34.13
39411;BME280;26579;43.238;23.124;2024-01-30T14:40:19;99029.03;;;6.96;35.39
39411;BME280;26579;43.238;23.124;2024-01-30T14:42:45;99028.44;;;6.62;36.26
39411;BME280;26579;43.238;23.124;2024-01-30T14:45:11;99028.53;;;6.04;37.58
39411;BME280;26579;43.238;23.124;2024-01-30T14:47:37;99031.59;;;5.87;37.89
39411;BME280;26579;43.238;23.124;2024-01-30T14:50:03;99039.16;;;5.95;37.79
39411;BME280;26579;43.238;23.124;2024-01-30T14:52:29;99012.47;;;5.93;38.06
39411;BME280;26579;43.238;23.124;2024-01-30T14:54:55;99043.84;;;6.10;38.37
39411;BME280;26579;43.238;23.124;2024-01-30T14:57:21;99038.84;;;6.05;38.04
39411;BME280;26579;43.238;23.124;2024-01-30T14:59:46;99041.34;;;6.08;37.92
39411;BME280;26579;43.238;23.124;2024-01-30T15:02:13;99052.28;;;6.17;37.80
39411;BME280;26579;43.238;23.124;2024-01-30T15:04:38;99044.47;;;6.18;37.87
39411;BME280;26579;43.238;23.124;2024-01-30T15:07:04;99028.25;;;6.13;37.91
39411;BME280;26579;43.238;23.124;2024-01-30T15:09:31;99033.59;;;6.08;38.34
39411;BME280;26579;43.238;23.124;2024-01-30T15:11:56;99025.09;;;6.03;38.14
39411;BME280;26579;43.238;23.124;2024-01-30T15:14:23;99036.06;;;6.11;38.20
39411;BME280;26579;43.238;23.124;2024-01-30T15:16:49;99031.03;;;6.07;39.33
39411;BME280;26579;43.238;23.124;2024-01-30T15:19:14;99026.69;;;6.07;40.45
39411;BME280;26579;43.238;23.124;2024-01-30T15:21:40;99026.75;;;6.06;39.88
39411;BME280;26579;43.238;23.124;2024-01-30T15:24:06;99037.22;;;6.01;39.68
39411;BME280;26579;43.238;23.124;2024-01-30T15:26:31;99036.00;;;5.83;40.51
39411;BME280;26579;43.238;23.124;2024-01-30T15:28:57;99031.31;;;5.66;40.84
39411;BME280;26579;43.238;23.124;2024-01-30T15:31:23;99032.31;;;5.62;40.86
39411;BME280;26579;43.238;23.124;2024-01-30T15:33:49;99035.06;;;5.56;41.00
39411;BME280;26579;43.238;23.124;2024-01-30T15:36:14;99032.44;;;5.58;40.42
39411;BME280;26579;43.238;23.124;2024-01-30T15:38:41;99033.94;;;5.35;41.67
39411;BME280;26579;43.238;23.124;2024-01-30T15:41:07;99045.88;;;5.39;41.80
39411;BME280;26579;43.238;23.124;2024-01-30T15:43:32;99045.06;;;5.37;41.33
39411;BME280;26579;43.238;23.124;2024-01-30T15:45:59;99050.56;;;5.25;41.60
39411;BME280;26579;43.238;23.124;2024-01-30T15:48:25;99051.97;;;5.04;42.85
39411;BME280;26579;43.238;23.124;2024-01-30T15:50:50;99049.31;;;5.07;42.54
39411;BME280;26579;43.238;23.124;2024-01-30T15:53:19;99042.31;;;5.11;42.17
39411;BME280;26579;43.238;23.124;2024-01-30T15:55:45;99049.97;;;5.15;42.50
39411;BME280;26579;43.238;23.124;2024-01-30T15:58:11;99051.56;;;5.19;41.63
39411;BME280;26579;43.238;23.124;2024-01-30T16:00:37;99066.41;;;5.11;41.93
39411;BME280;26579;43.238;23.124;2024-01-30T16:03:03;99064.63;;;5.13;42.53
39411;BME280;26579;43.238;23.124;2024-01-30T16:05:29;99068.88;;;5.16;41.92
39411;BME280;26579;43.238;23.124;2024-01-30T16:07:55;99068.06;;;5.14;41.93
39411;BME280;26579;43.238;23.124;2024-01-30T16:10:21;99053.38;;;5.16;42.15
39411;BME280;26579;43.238;23.124;2024-01-30T16:12:47;99059.75;;;5.03;42.56
39411;BME280;26579;43.238;23.124;2024-01-30T16:15:13;99066.66;;;5.02;42.68
39411;BME280;26579;43.238;23.124;2024-01-30T16:17:40;99066.69;;;5.01;42.89
39411;BME280;26579;43.238;23.124;2024-01-30T16:20:07;99072.66;;;5.03;42.47
39411;BME280;26579;43.238;23.124;2024-01-30T16:22:32;99059.28;;;4.87;43.02
39411;BME280;26579;43.238;23.124;2024-01-30T16:24:58;99075.38;;;4.98;42.81
39411;BME280;26579;43.238;23.124;2024-01-30T16:27:27;99078.28;;;4.84;43.55
39411;BME280;26579;43.238;23.124;2024-01-30T16:29:53;99073.03;;;4.87;43.15
39411;BME280;26579;43.238;23.124;2024-01-30T16:32:19;99074.72;;;4.90;43.11
39411;BME280;26579;43.238;23.124;2024-01-30T16:34:44;99064.78;;;4.73;43.38
39411;BME280;26579;43.238;23.124;2024-01-30T16:37:10;99075.50;;;4.56;43.92
39411;BME280;26579;43.238;23.124;2024-01-30T16:39:39;99056.16;;;4.38;43.75
39411;BME280;26579;43.238;23.124;2024-01-30T16:42:05;99067.44;;;4.34;44.30
39411;BME280;26579;43.238;23.124;2024-01-30T16:44:30;99065.63;;;4.38;44.19
39411;BME280;26579;43.238;23.124;2024-01-30T16:46:56;99066.53;;;4.35;43.93
39411;BME280;26579;43.238;23.124;2024-01-30T16:49:22;99074.06;;;4.44;43.43
39411;BME280;26579;43.238;23.124;2024-01-30T16:51:48;99061.38;;;4.35;43.72
39411;BME280;26579;43.238;23.124;2024-01-30T16:54:14;99071.53;;;4.43;43.48
39411;BME280;26579;43.238;23.124;2024-01-30T16:56:40;99067.16;;;4.46;44.41
39411;BME280;26579;43.238;23.124;2024-01-30T16:59:05;99071.94;;;4.24;45.09
39411;BME280;26579;43.238;23.124;2024-01-30T17:01:31;99071.38;;;4.12;45.37
39411;BME280;26579;43.238;23.124;2024-01-30T17:03:58;99067.03;;;4.14;44.83
39411;BME280;26579;43.238;23.124;2024-01-30T17:06:24;99072.13;;;4.17;45.02
39411;BME280;26579;43.238;23.124;2024-01-30T17:08:49;99069.75;;;4.07;45.39
39411;BME280;26579;43.238;23.124;2024-01-30T17:11:15;99061.34;;;3.99;45.75
39411;BME280;26579;43.238;23.124;2024-01-30T17:13:41;99063.31;;;3.86;45.56
39411;BME280;26579;43.238;23.124;2024-01-30T17:16:06;99060.78;;;3.83;45.73
39411;BME280;26579;43.238;23.124;2024-01-30T17:18:32;99063.25;;;3.90;45.14
39411;BME280;26579;43.238;23.124;2024-01-30T17:20:58;99060.72;;;3.88;45.03
39411;BME280;26579;43.238;23.124;2024-01-30T17:23:23;99066.69;;;3.90;45.28
39411;BME280;26579;43.238;23.124;2024-01-30T17:25:49;99066.84;;;3.81;46.12
39411;BME280;26579;43.238;23.124;2024-01-30T17:28:15;99071.97;;;3.84;45.67
39411;BME280;26579;43.238;23.124;2024-01-30T17:30:41;99075.28;;;3.89;45.86
39411;BME280;26579;43.238;23.124;2024-01-30T17:33:07;99053.13;;;3.80;46.29
39411;BME280;26579;43.238;23.124;2024-01-30T17:35:33;99064.41;;;3.75;46.27
39411;BME280;26579;43.238;23.124;2024-01-30T17:37:58;99058.09;;;3.48;46.77
39411;BME280;26579;43.238;23.124;2024-01-30T17:40:24;99076.19;;;3.43;46.69
39411;BME280;26579;43.238;23.124;2024-01-30T17:42:50;99057.50;;;3.35;46.83
39411;BME280;26579;43.238;23.124;2024-01-30T17:45:15;99064.25;;;3.39;47.04
39411;BME280;26579;43.238;23.124;2024-01-30T17:47:44;99058.09;;;3.48;46.63
39411;BME280;26579;43.238;23.124;2024-01-30T17:50:09;99063.94;;;3.56;46.58
39411;BME280;26579;43.238;23.124;2024-01-30T17:52:35;99059.81;;;3.47;46.93
39411;BME280;26579;43.238;23.124;2024-01-30T17:55:01;99047.91;;;3.42;47.26
39411;BME280;26579;43.238;23.124;2024-01-30T17:57:27;99062.53;;;3.39;47.17
39411;BME280;26579;43.238;23.124;2024-01-30T17:59:52;99060.22;;;3.26;47.79
39411;BME280;26579;43.238;23.124;2024-01-30T18:02:18;99060.97;;;3.32;47.17
39411;BME280;26579;43.238;23.124;2024-01-30T18:04:44;99051.63;;;3.25;47.42
39411;BME280;26579;43.238;23.124;2024-01-30T18:07:10;99051.81;;;3.17;48.27
39411;BME280;26579;43.238;23.124;2024-01-30T18:09:36;99044.16;;;3.13;48.11
39411;BME280;26579;43.238;23.124;2024-01-30T18:12:02;99046.84;;;3.05;48.67
39411;BME280;26579;43.238;23.124;2024-01-30T18:14:30;99043.50;;;3.02;48.98
39411;BME280;26579;43.238;23.124;2024-01-30T18:16:56;99038.34;;;3.02;49.05
39411;BME280;26579;43.238;23.124;2024-01-30T18:19:22;99046.06;;;3.02;48.50
39411;BME280;26579;43.238;23.124;2024-01-30T18:21:47;99044.38;;;3.01;48.42
39411;BME280;26579;43.238;23.124;2024-01-30T18:24:13;99045.16;;;3.06;47.94
39411;BME280;26579;43.238;23.124;2024-01-30T18:26:38;99040.81;;;3.08;48.23
39411;BME280;26579;43.238;23.124;2024-01-30T18:29:04;99033.97;;;3.05;47.92
39411;BME280;26579;43.238;23.124;2024-01-30T18:31:30;99038.16;;;3.11;48.50
39411;BME280;26579;43.238;23.124;2024-01-30T18:33:55;99035.72;;;3.05;48.81
39411;BME280;26579;43.238;23.124;2024-01-30T18:36:23;99038.16;;;3.11;48.44
39411;BME280;26579;43.238;23.124;2024-01-30T18:38:49;99040.84;;;3.06;48.95
39411;BME280;26579;43.238;23.124;2024-01-30T18:41:16;99039.94;;;3.09;48.34
39411;BME280;26579;43.238;23.124;2024-01-30T18:43:42;99045.03;;;3.12;48.11
39411;BME280;26579;43.238;23.124;2024-01-30T18:46:09;99033.41;;;2.91;48.71
39411;BME280;26579;43.238;23.124;2024-01-30T18:48:37;99050.44;;;2.97;49.34
39411;BME280;26579;43.238;23.124;2024-01-30T18:51:04;99051.31;;;2.97;48.84
39411;BME280;26579;43.238;23.124;2024-01-30T18:53:30;99036.78;;;2.94;48.30
39411;BME280;26579;43.238;23.124;2024-01-30T18:55:59;99041.88;;;2.96;48.08
39411;BME280;26579;43.238;23.124;2024-01-30T18:58:25;99042.94;;;2.86;49.16
39411;BME280;26579;43.238;23.124;2024-01-30T19:00:51;99035.28;;;2.81;49.21
39411;BME280;26579;43.238;23.124;2024-01-30T19:03:16;99036.09;;;2.83;48.40
39411;BME280;26579;43.238;23.124;2024-01-30T19:05:42;99041.06;;;2.94;48.77
39411;BME280;26579;43.238;23.124;2024-01-30T19:08:08;99029.34;;;2.78;48.72
39411;BME280;26579;43.238;23.124;2024-01-30T19:10:33;99047.31;;;2.79;49.32
39411;BME280;26579;43.238;23.124;2024-01-30T19:13:02;99032.19;;;2.62;49.63
39411;BME280;26579;43.238;23.124;2024-01-30T19:15:28;99037.31;;;2.62;50.31
39411;BME280;26579;43.238;23.124;2024-01-30T19:17:54;99045.09;;;2.58;50.44
39411;BME280;26579;43.238;23.124;2024-01-30T19:20:20;99039.38;;;2.42;50.32
39411;BME280;26579;43.238;23.124;2024-01-30T19:22:45;99038.38;;;2.51;50.27
39411;BME280;26579;43.238;23.124;2024-01-30T19:25:11;99038.47;;;2.43;50.37
39411;BME280;26579;43.238;23.124;2024-01-30T19:27:40;99038.88;;;2.17;50.36
39411;BME280;26579;43.238;23.124;2024-01-30T19:30:07;99049.09;;;2.21;50.63
39411;BME280;26579;43.238;23.124;2024-01-30T19:32:33;99046.47;;;2.24;50.45
39411;BME280;26579;43.238;23.124;2024-01-30T19:35:03;99042.16;;;2.26;50.08
39411;BME280;26579;43.238;23.124;2024-01-30T19:37:29;99046.41;;;2.29;50.69
39411;BME280;26579;43.238;23.124;2024-01-30T19:39:54;99037.78;;;2.32;50.64
39411;BME280;26579;43.238;23.124;2024-01-30T19:42:20;99043.78;;;2.32;49.86
39411;BME280;26579;43.238;23.124;2024-01-30T19:44:49;99034.31;;;2.36;50.17
39411;BME280;26579;43.238;23.124;2024-01-30T19:47:15;99028.34;;;2.34;50.39
39411;BME280;26579;43.238;23.124;2024-01-30T19:49:40;99030.09;;;2.32;49.91
39411;BME280;26579;43.238;23.124;2024-01-30T19:52:07;99031.75;;;2.33;50.34
39411;BME280;26579;43.238;23.124;2024-01-30T19:54:33;99029.94;;;2.41;49.55
39411;BME280;26579;43.238;23.124;2024-01-30T19:57:00;99019.75;;;2.35;50.46
39411;BME280;26579;43.238;23.124;2024-01-30T19:59:29;99025.78;;;2.32;50.39
39411;BME280;26579;43.238;23.124;2024-01-30T20:01:56;99016.44;;;2.26;50.69
39411;BME280;26579;43.238;23.124;2024-01-30T20:04:25;99016.56;;;2.19;50.99
39411;BME280;26579;43.238;23.124;2024-01-30T20:06:52;99011.63;;;2.07;51.47
39411;BME280;26579;43.238;23.124;2024-01-30T20:09:21;99000.63;;;1.97;51.42
39411;BME280;26579;43.238;23.124;2024-01-30T20:11:46;99015.13;;;2.01;51.52
39411;BME280;26579;43.238;23.124;2024-01-30T20:14:12;99014.19;;;2.07;50.82
39411;BME280;26579;43.238;23.124;2024-01-30T20:16:39;99016.72;;;2.10;51.12
39411;BME280;26579;43.238;23.124;2024-01-30T20:19:05;98997.94;;;2.03;51.06
39411;BME280;26579;43.238;23.124;2024-01-30T20:21:31;98999.53;;;2.13;51.11
39411;BME280;26579;43.238;23.124;2024-01-30T20:23:58;99003.88;;;2.08;51.34
39411;BME280;26579;43.238;23.124;2024-01-30T20:26:23;98997.91;;;2.06;50.77
39411;BME280;26579;43.238;23.124;2024-01-30T20:28:51;99009.84;;;2.10;50.49
39411;BME280;26579;43.238;23.124;2024-01-30T20:31:16;99004.72;;;2.10;50.71
39411;BME280;26579;43.238;23.124;2024-01-30T20:33:42;99008.09;;;2.12;51.22
39411;BME280;26579;43.238;23.124;2024-01-30T20:36:08;99010.59;;;2.17;50.73
39411;BME280;26579;43.238;23.124;2024-01-30T20:38:33;99002.16;;;2.10;50.88
39411;BME280;26579;43.238;23.124;2024-01-30T20:40:59;98998.66;;;2.14;50.93
39411;BME280;26579;43.238;23.124;2024-01-30T20:43:25;98995.22;;;2.15;50.56
39411;BME280;26579;43.238;23.124;2024-01-30T20:45:51;98990.94;;;2.14;50.33
39411;BME280;26579;43.238;23.124;2024-01-30T20:48:16;98988.41;;;2.13;50.47
39411;BME280;26579;43.238;23.124;2024-01-30T20:50:42;98967.06;;;2.06;50.30
39411;BME280;26579;43.238;23.124;2024-01-30T20:53:08;98984.94;;;2.15;50.56
39411;BME280;26579;43.238;23.124;2024-01-30T20:55:34;98973.97;;;2.02;50.56
39411;BME280;26579;43.238;23.124;2024-01-30T20:58:00;98978.28;;;2.02;50.93
39411;BME280;26579;43.238;23.124;2024-01-30T21:00:25;98969.78;;;1.97;50.83
39411;BME280;26579;43.238;23.124;2024-01-30T21:02:51;98957.03;;;1.91;50.29
39411;BME280;26579;43.238;23.124;2024-01-30T21:05:17;98959.41;;;2.03;50.87
39411;BME280;26579;43.238;23.124;2024-01-30T21:07:42;98965.53;;;1.96;50.58
39411;BME280;26579;43.238;23.124;2024-01-30T21:10:08;98960.53;;;1.85;50.72
39411;BME280;26579;43.238;23.124;2024-01-30T21:12:34;98951.38;;;1.66;51.21
39411;BME280;26579;43.238;23.124;2024-01-30T21:15:00;98949.75;;;1.62;50.88
39411;BME280;26579;43.238;23.124;2024-01-30T21:17:26;98952.28;;;1.65;50.81
39411;BME280;26579;43.238;23.124;2024-01-30T21:19:51;98958.22;;;1.68;51.58
39411;BME280;26579;43.238;23.124;2024-01-30T21:22:17;98955.59;;;1.71;50.81
39411;BME280;26579;43.238;23.124;2024-01-30T21:24:43;98959.84;;;1.74;50.23
39411;BME280;26579;43.238;23.124;2024-01-30T21:27:08;98954.69;;;1.74;49.89
39411;BME280;26579;43.238;23.124;2024-01-30T21:29:34;98953.81;;;1.78;49.81
39411;BME280;26579;43.238;23.124;2024-01-30T21:32:00;98966.53;;;1.86;49.42
39411;BME280;26579;43.238;23.124;2024-01-30T21:34:25;98963.16;;;1.84;49.96
39411;BME280;26579;43.238;23.124;2024-01-30T21:36:51;98963.06;;;1.88;50.31
39411;BME280;26579;43.238;23.124;2024-01-30T21:39:16;98965.59;;;1.91;49.75
39411;BME280;26579;43.238;23.124;2024-01-30T21:41:42;98962.22;;;1.89;50.24
39411;BME280;26579;43.238;23.124;2024-01-30T21:44:26;98958.00;;;1.84;49.92
39411;BME280;26579;43.238;23.124;2024-01-30T21:46:53;98963.16;;;1.84;50.51
39411;BME280;26579;43.238;23.124;2024-01-30T21:49:19;98943.72;;;1.64;50.14